Time;durP1;ratioP1;P1;durP2;ratioP2;P2;SDS_P1;SDS_P2;PMS_P1;PMS_P2;Temp;Humidity;BMP_temperature;BMP_pressure;BME280_temperature;BME280_humidity;BME280_pressure;Samples;Min_cycle;Max_cycle;Signal;HPM_P1;HPM_P2
2022/08/07 00:01:54;;;;;;;6.78;2.63;;;17.10;92.80;;;;;;6059902;23;20053;-77
2022/08/07 00:04:21;;;;;;;4.50;2.60;;;17.10;93.10;;;;;;6060439;23;20121;-77
2022/08/07 00:06:48;;;;;;;5.20;2.70;;;17.00;93.10;;;;;;6060750;23;20367;-77
2022/08/07 00:09:15;;;;;;;6.85;2.67;;;17.00;93.10;;;;;;6060026;23;20504;-77
2022/08/07 00:11:42;;;;;;;4.68;2.80;;;17.00;93.30;;;;;;6059152;23;20105;-77
2022/08/07 00:14:10;;;;;;;5.50;3.10;;;17.00;93.30;;;;;;6060685;23;20057;-77
2022/08/07 00:16:37;;;;;;;6.05;2.53;;;16.90;93.40;;;;;;6060325;23;20102;-77
2022/08/07 00:19:04;;;;;;;6.38;2.75;;;16.90;93.50;;;;;;6058185;23;20038;-77
2022/08/07 00:21:31;;;;;;;6.95;2.58;;;16.90;93.60;;;;;;6060777;23;20019;-77
2022/08/07 00:23:58;;;;;;;6.38;2.55;;;16.90;93.70;;;;;;6060559;23;20023;-77
2022/08/07 00:26:25;;;;;;;5.07;2.42;;;16.90;93.80;;;;;;6060599;23;20053;-77
2022/08/07 00:28:52;;;;;;;4.47;2.55;;;16.80;93.90;;;;;;6059914;23;20061;-77
2022/08/07 00:31:20;;;;;;;4.88;2.90;;;16.80;94.00;;;;;;6058657;23;20023;-77
2022/08/07 00:33:47;;;;;;;7.68;2.72;;;16.80;94.10;;;;;;6082730;23;20419;-77
2022/08/07 00:36:14;;;;;;;5.65;2.85;;;16.80;94.20;;;;;;6058622;23;20022;-77
2022/08/07 00:38:41;;;;;;;4.60;2.60;;;16.80;94.20;;;;;;6059941;23;20029;-77
2022/08/07 00:41:08;;;;;;;5.40;2.92;;;16.70;94.30;;;;;;6058757;23;20098;-77
2022/08/07 00:43:35;;;;;;;5.38;2.90;;;16.70;94.50;;;;;;6059654;23;20047;-77
2022/08/07 00:46:02;;;;;;;5.47;2.90;;;16.70;94.60;;;;;;6059616;23;20022;-77
2022/08/07 00:48:31;;;;;;;5.85;2.55;;;16.70;94.70;;;;;;6058014;23;20109;-77
2022/08/07 00:50:58;;;;;;;6.40;2.88;;;16.60;94.40;;;;;;6059515;23;20330;-77
2022/08/07 00:53:25;;;;;;;5.63;3.08;;;16.60;94.70;;;;;;6058373;23;20465;-77
2022/08/07 00:55:52;;;;;;;7.00;2.88;;;16.60;94.80;;;;;;6060857;23;20466;-77
2022/08/07 00:58:21;;;;;;;4.50;2.90;;;16.60;94.90;;;;;;6058885;23;20027;-77
2022/08/07 01:00:48;;;;;;;7.10;2.78;;;16.50;94.90;;;;;;6058915;23;20027;-77
2022/08/07 01:03:15;;;;;;;6.75;2.65;;;16.50;95.00;;;;;;6060781;23;20049;-77
2022/08/07 01:05:44;;;;;;;6.88;3.00;;;16.50;95.30;;;;;;6060747;23;20057;-77
2022/08/07 01:08:11;;;;;;;6.60;2.72;;;16.50;95.30;;;;;;6058831;23;20426;-77
2022/08/07 01:10:39;;;;;;;7.13;2.88;;;16.50;95.50;;;;;;6082565;23;20055;-77
2022/08/07 01:13:06;;;;;;;4.88;2.70;;;16.40;95.50;;;;;;6059047;23;20030;-77
2022/08/07 01:15:34;;;;;;;6.88;3.13;;;16.40;95.60;;;;;;6082856;23;20045;-77
2022/08/07 01:18:03;;;;;;;6.57;3.08;;;16.40;95.60;;;;;;6059240;23;20061;-77
2022/08/07 01:20:34;;;;;;;5.53;2.65;;;16.40;95.50;;;;;;6058543;23;20019;-77
2022/08/07 01:23:04;;;;;;;4.70;2.90;;;16.30;95.80;;;;;;6059198;23;20049;-77
2022/08/07 01:25:32;;;;;;;5.72;2.53;;;16.30;95.70;;;;;;6058818;23;20636;-77
2022/08/07 01:27:59;;;;;;;6.90;2.72;;;16.30;95.70;;;;;;6058541;23;20033;-77
2022/08/07 01:30:27;;;;;;;6.07;2.80;;;16.30;95.80;;;;;;6057690;23;20019;-77
2022/08/07 01:32:56;;;;;;;5.50;2.90;;;16.30;96.00;;;;;;6059113;23;20022;-77
2022/08/07 01:35:23;;;;;;;5.50;3.00;;;16.30;96.10;;;;;;6058433;23;20081;-77
2022/08/07 01:37:50;;;;;;;5.22;2.78;;;16.20;95.90;;;;;;6058332;23;20034;-77
2022/08/07 01:40:21;;;;;;;6.28;2.92;;;16.20;96.00;;;;;;6057950;23;20131;-77
2022/08/07 01:42:56;;;;;;;5.72;2.92;;;16.20;96.10;;;;;;6058923;23;20027;-77
2022/08/07 01:45:23;;;;;;;7.25;2.50;;;16.20;96.00;;;;;;6058497;23;20397;-77
2022/08/07 01:47:56;;;;;;;5.93;2.75;;;16.20;96.20;;;;;;6058532;23;20029;-77
2022/08/07 01:50:23;;;;;;;5.07;2.72;;;16.20;96.30;;;;;;6057791;23;20029;-77
2022/08/07 01:52:52;;;;;;;5.15;2.75;;;16.10;96.20;;;;;;6057899;23;20027;-77
2022/08/07 01:55:24;;;;;;;4.45;2.65;;;16.10;96.40;;;;;;6057476;23;20027;-77
2022/08/07 01:57:53;;;;;;;6.55;2.90;;;16.10;96.50;;;;;;6058637;23;20357;-78
2022/08/07 02:00:20;;;;;;;9.10;2.90;;;16.10;96.70;;;;;;6058021;23;20109;-78
2022/08/07 02:02:52;;;;;;;5.75;3.38;;;16.00;96.60;;;;;;6058449;23;20408;-78
2022/08/07 02:05:24;;;;;;;10.95;2.72;;;16.00;96.60;;;;;;6058016;23;20050;-78
2022/08/07 02:07:54;;;;;;;5.13;2.67;;;16.00;96.60;;;;;;6058163;23;20080;-78
2022/08/07 02:10:32;;;;;;;5.10;2.65;;;16.00;96.70;;;;;;6057897;23;20023;-78
2022/08/07 02:13:00;;;;;;;5.60;3.03;;;16.00;96.80;;;;;;6058282;23;20014;-78
2022/08/07 02:15:35;;;;;;;4.50;2.95;;;16.00;96.80;;;;;;6082093;23;20038;-78
2022/08/07 02:18:03;;;;;;;4.68;3.00;;;15.90;97.00;;;;;;6058110;23;20026;-78
2022/08/07 02:20:32;;;;;;;6.43;3.20;;;16.00;96.70;;;;;;6057630;23;20102;-78
2022/08/07 02:23:02;;;;;;;6.00;2.72;;;15.90;96.90;;;;;;6057468;23;20029;-78
2022/08/07 02:25:32;;;;;;;6.60;3.00;;;15.90;97.00;;;;;;6058219;23;20077;-78
2022/08/07 02:28:02;;;;;;;5.65;3.08;;;15.90;97.00;;;;;;6058303;23;20401;-78
2022/08/07 02:30:30;;;;;;;5.00;3.00;;;15.90;96.90;;;;;;6057608;23;20066;-78
2022/08/07 02:32:58;;;;;;;5.05;2.70;;;15.80;96.90;;;;;;6058016;23;20331;-78
2022/08/07 02:35:25;;;;;;;9.30;3.53;;;15.80;97.20;;;;;;6059620;23;20310;-78
2022/08/07 02:37:58;;;;;;;5.85;3.15;;;15.80;97.30;;;;;;6057921;23;20026;-78
2022/08/07 02:40:26;;;;;;;6.32;3.08;;;15.80;97.10;;;;;;6057398;23;20019;-78
2022/08/07 02:42:57;;;;;;;5.05;2.70;;;15.80;97.20;;;;;;6058204;23;20523;-78
2022/08/07 02:45:27;;;;;;;5.30;2.92;;;15.80;97.10;;;;;;6058126;23;20649;-78
2022/08/07 02:47:55;;;;;;;4.82;3.05;;;15.70;97.20;;;;;;6057381;23;20046;-79
2022/08/07 02:50:23;;;;;;;9.82;2.75;;;15.70;97.20;;;;;;6057126;23;20023;-78
2022/08/07 02:52:54;;;;;;;5.72;2.85;;;15.70;97.40;;;;;;6058813;23;20023;-78
2022/08/07 02:55:22;;;;;;;;;;;15.70;97.50;;;;;;6058650;23;20502;-78
2022/08/07 02:57:50;;;;;;;5.68;2.50;;;15.70;97.60;;;;;;6059277;23;20177;-78
2022/08/07 03:00:18;;;;;;;7.80;3.05;;;15.70;97.50;;;;;;6059141;23;20073;-78
2022/08/07 03:02:47;;;;;;;5.88;2.70;;;15.60;97.50;;;;;;6059449;23;20042;-78
2022/08/07 03:05:16;;;;;;;6.28;3.08;;;15.60;97.50;;;;;;6057495;23;20472;-78
2022/08/07 03:07:46;;;;;;;7.72;3.00;;;15.60;97.60;;;;;;6058991;23;20109;-78
2022/08/07 03:10:15;;;;;;;5.60;3.13;;;15.60;97.60;;;;;;6058221;23;20062;-78
2022/08/07 03:12:44;;;;;;;4.03;2.50;;;15.60;97.80;;;;;;6059315;23;20069;-78
2022/08/07 03:15:13;;;;;;;5.95;3.13;;;15.50;97.80;;;;;;6058712;23;20023;-78
2022/08/07 03:17:42;;;;;;;4.60;2.72;;;15.50;97.80;;;;;;6059130;23;20481;-78
2022/08/07 03:20:11;;;;;;;5.88;2.78;;;15.50;97.90;;;;;;6058937;23;20033;-78
2022/08/07 03:22:40;;;;;;;5.57;2.75;;;15.50;98.10;;;;;;6059213;23;20026;-78
2022/08/07 03:25:09;;;;;;;5.00;2.70;;;15.50;98.00;;;;;;6058839;23;20034;-78
2022/08/07 03:27:42;;;;;;;5.53;3.03;;;15.50;98.20;;;;;;6058745;23;20026;-78
2022/08/07 03:30:13;;;;;;;5.22;3.00;;;15.50;98.20;;;;;;6060103;23;20023;-78
2022/08/07 03:32:46;;;;;;;5.72;2.90;;;15.40;98.20;;;;;;6059235;23;20453;-78
2022/08/07 03:35:17;;;;;;;4.97;2.72;;;15.50;98.40;;;;;;6059221;23;20073;-78
2022/08/07 03:37:46;;;;;;;5.72;2.72;;;15.40;98.30;;;;;;6058500;23;20031;-78
2022/08/07 03:40:14;;;;;;;4.63;2.75;;;15.50;98.30;;;;;;6058597;23;20030;-78
2022/08/07 03:42:41;;;;;;;7.68;3.17;;;15.40;98.20;;;;;;6060773;23;20018;-78
2022/08/07 03:45:10;;;;;;;4.28;2.53;;;15.40;98.20;;;;;;6059158;23;20027;-78
2022/08/07 03:47:37;;;;;;;8.60;3.42;;;15.40;98.30;;;;;;6059103;23;20027;-78
2022/08/07 03:50:06;;;;;;;7.25;3.17;;;15.40;98.20;;;;;;6059625;23;20027;-78
2022/08/07 03:52:38;;;;;;;8.65;3.10;;;15.40;98.20;;;;;;6082035;23;20018;-78
2022/08/07 03:55:08;;;;;;;5.40;2.80;;;15.30;98.40;;;;;;6058636;23;20026;-78
2022/08/07 03:57:39;;;;;;;5.93;3.20;;;15.30;98.10;;;;;;6058856;23;20033;-78
2022/08/07 04:00:08;;;;;;;6.72;3.03;;;15.40;98.20;;;;;;6059949;23;20555;-78
2022/08/07 04:02:43;;;;;;;8.98;3.38;;;15.30;98.40;;;;;;6061064;23;20074;-78
2022/08/07 04:05:18;;;;;;;6.10;3.47;;;15.30;98.50;;;;;;6058721;23;20072;-78
2022/08/07 04:07:46;;;;;;;7.65;3.60;;;15.30;98.50;;;;;;6083184;23;20361;-78
2022/08/07 04:10:16;;;;;;;7.53;3.53;;;15.20;98.40;;;;;;6058074;23;20061;-78
2022/08/07 04:12:43;;;;;;;6.35;3.40;;;15.20;98.30;;;;;;6060756;23;20097;-78
2022/08/07 04:15:12;;;;;;;7.28;3.78;;;15.20;98.30;;;;;;6058695;23;20331;-78
2022/08/07 04:17:42;;;;;;;7.75;3.40;;;15.20;98.60;;;;;;6082059;23;20037;-78
2022/08/07 04:20:10;;;;;;;6.18;3.15;;;15.20;98.60;;;;;;6059720;23;20046;-78
2022/08/07 04:22:40;;;;;;;5.22;3.45;;;15.20;98.50;;;;;;6059077;23;20019;-78
2022/08/07 04:25:09;;;;;;;6.57;3.72;;;15.20;98.80;;;;;;6058798;23;20042;-78
2022/08/07 04:27:37;;;;;;;5.28;3.38;;;15.10;98.80;;;;;;6058450;23;20373;-78
2022/08/07 04:30:09;;;;;;;5.20;3.40;;;15.20;98.90;;;;;;6058288;23;20023;-78
2022/08/07 04:32:50;;;;;;;6.90;3.53;;;15.20;98.90;;;;;;6060637;23;20027;-78
2022/08/07 04:35:18;;;;;;;5.68;3.35;;;15.10;98.90;;;;;;6058929;23;20023;-78
2022/08/07 04:37:48;;;;;;;6.68;3.72;;;15.10;99.00;;;;;;6058648;23;20030;-78
2022/08/07 04:40:16;;;;;;;7.15;3.53;;;15.20;99.20;;;;;;6082256;23;20031;-78
2022/08/07 04:42:43;;;;;;;5.85;3.60;;;15.20;99.50;;;;;;6058553;23;20019;-78
2022/08/07 04:45:12;;;;;;;6.35;3.85;;;15.10;99.70;;;;;;6058850;23;20026;-78
2022/08/07 04:47:46;;;;;;;6.25;3.72;;;15.10;99.80;;;;;;6058750;23;20027;-78
2022/08/07 04:50:19;;;;;;;6.68;3.90;;;15.20;99.90;;;;;;6057970;23;20081;-78
2022/08/07 04:53:14;;;;;;;8.63;3.97;;;15.20;99.90;;;;;;6060238;23;20449;-78
2022/08/07 04:55:50;;;;;;;6.03;3.90;;;15.20;99.90;;;;;;6058658;23;20023;-78
2022/08/07 04:58:23;;;;;;;8.20;3.90;;;15.20;99.90;;;;;;6059638;23;20049;-78
2022/08/07 05:00:54;;;;;;;9.57;6.07;;;15.30;99.90;;;;;;6058787;23;20030;-78
2022/08/07 05:03:27;;;;;;;9.45;6.65;;;15.40;99.90;;;;;;6058267;23;20027;-78
2022/08/07 05:06:00;;;;;;;11.27;8.00;;;15.40;99.90;;;;;;6058743;23;20050;-78
2022/08/07 05:08:37;;;;;;;14.88;9.73;;;15.50;99.90;;;;;;6058337;23;20046;-78
2022/08/07 05:11:09;;;;;;;11.80;9.15;;;15.50;99.90;;;;;;6060361;23;20349;-78
2022/08/07 05:13:42;;;;;;;12.52;8.40;;;15.60;99.90;;;;;;6082489;23;20063;-78
2022/08/07 05:16:10;;;;;;;10.32;7.65;;;15.60;99.90;;;;;;6058248;23;20027;-78
2022/08/07 05:18:43;;;;;;;10.45;8.13;;;15.70;99.90;;;;;;6058285;23;20035;-78
2022/08/07 05:21:12;;;;;;;12.13;7.55;;;15.70;99.90;;;;;;6082230;23;20023;-78
2022/08/07 05:23:44;;;;;;;10.98;7.07;;;15.70;99.90;;;;;;6060097;23;20384;-78
2022/08/07 05:26:16;;;;;;;11.07;6.93;;;15.80;99.90;;;;;;6060477;23;20102;-78
2022/08/07 05:28:45;;;;;;;10.40;7.28;;;15.80;99.90;;;;;;6057510;23;20110;-78
2022/08/07 05:31:15;;;;;;;;;;;15.90;99.90;;;;;;6058904;23;20026;-78
2022/08/07 05:33:44;;;;;;;9.52;6.50;;;15.90;99.90;;;;;;6058514;23;20260;-78
2022/08/07 05:36:12;;;;;;;10.43;5.95;;;16.00;99.90;;;;;;6082470;23;20050;-78
2022/08/07 05:38:41;;;;;;;8.32;5.60;;;16.00;99.70;;;;;;6058120;23;20030;-82
2022/08/07 05:41:09;;;;;;;7.22;5.53;;;16.10;99.50;;;;;;6057910;23;20051;-78
2022/08/07 05:43:36;;;;;;;6.80;4.63;;;16.10;99.20;;;;;;6058393;23;20031;-80
2022/08/07 05:46:04;;;;;;;6.70;3.88;;;16.20;99.30;;;;;;6058581;23;20027;-81
2022/08/07 05:48:31;;;;;;;8.88;4.07;;;16.30;98.70;;;;;;6059555;23;20109;-81
2022/08/07 05:51:00;;;;;;;7.63;4.15;;;16.40;98.30;;;;;;6059668;23;20023;-81
2022/08/07 05:53:29;;;;;;;8.35;4.75;;;16.40;98.20;;;;;;6058247;23;20369;-81
2022/08/07 05:55:57;;;;;;;5.65;4.00;;;16.50;98.20;;;;;;6059682;23;20082;-81
2022/08/07 05:58:25;;;;;;;7.18;4.32;;;16.50;98.10;;;;;;6058492;23;20461;-81
2022/08/07 06:00:53;;;;;;;5.85;3.60;;;16.60;98.20;;;;;;6058118;23;20023;-81
2022/08/07 06:03:21;;;;;;;5.78;3.42;;;16.60;98.20;;;;;;6058536;23;20027;-81
2022/08/07 06:05:48;;;;;;;7.43;3.30;;;16.70;98.40;;;;;;6058152;23;20026;-81
2022/08/07 06:08:16;;;;;;;6.63;3.85;;;16.80;98.60;;;;;;6058020;23;20109;-80
2022/08/07 06:10:44;;;;;;;7.72;3.35;;;16.80;99.00;;;;;;6057940;23;20023;-80
2022/08/07 06:13:13;;;;;;;6.10;3.05;;;16.90;98.80;;;;;;6058142;23;20027;-81
2022/08/07 06:15:43;;;;;;;6.57;2.90;;;17.00;98.60;;;;;;6081404;23;20026;-81
2022/08/07 06:18:16;;;;;;;4.65;2.50;;;17.10;98.10;;;;;;6058189;23;20274;-81
2022/08/07 06:20:44;;;;;;;6.07;2.70;;;17.20;97.80;;;;;;6057826;23;20031;-81
2022/08/07 06:23:11;;;;;;;4.43;2.60;;;17.20;96.70;;;;;;6058746;23;20027;-82
2022/08/07 06:25:41;;;;;;;4.25;2.00;;;17.40;96.10;;;;;;6055659;23;20532;-81
2022/08/07 06:28:10;;;;;;;4.18;2.20;;;17.50;95.20;;;;;;6056108;23;20034;-81
2022/08/07 06:30:39;;;;;;;4.30;2.00;;;17.70;95.30;;;;;;6055535;23;20338;-81
2022/08/07 06:33:11;;;;;;;7.53;2.10;;;17.80;94.30;;;;;;6055448;23;20023;-81
2022/08/07 06:35:38;;;;;;;6.30;1.88;;;18.00;92.70;;;;;;6056113;23;20030;-82
2022/08/07 06:38:05;;;;;;;5.70;1.70;;;18.00;92.00;;;;;;6055264;23;20045;-83
2022/08/07 06:40:37;;;;;;;5.35;1.80;;;18.10;91.00;;;;;;6054871;23;20126;-83
2022/08/07 06:43:06;;;;;;;3.83;1.90;;;18.20;90.00;;;;;;6056787;23;20019;-86
2022/08/07 06:45:41;;;;;;;5.95;1.50;;;18.20;89.20;;;;;;6057934;23;20461;-84
2022/08/07 06:48:10;;;;;;;5.63;1.52;;;18.30;89.30;;;;;;6058117;23;20026;-83
2022/08/07 06:50:42;;;;;;;2.72;1.30;;;18.40;89.10;;;;;;6058183;23;20110;-83
2022/08/07 06:53:09;;;;;;;4.18;1.70;;;18.50;88.40;;;;;;6060538;23;20026;-83
2022/08/07 06:55:37;;;;;;;3.88;1.67;;;18.60;87.80;;;;;;6060452;23;20027;-81
2022/08/07 06:58:08;;;;;;;3.55;1.60;;;18.60;88.40;;;;;;6058999;23;20035;-84
2022/08/07 07:00:43;;;;;;;4.32;1.70;;;18.70;88.80;;;;;;6082058;23;20023;-84
2022/08/07 07:03:11;;;;;;;4.93;1.38;;;18.70;87.50;;;;;;6058640;23;20019;-80
2022/08/07 07:05:38;;;;;;;3.45;1.27;;;18.80;87.70;;;;;;6060691;23;20078;-81
2022/08/07 07:08:07;;;;;;;5.05;1.55;;;18.80;87.90;;;;;;6057546;23;20483;-80
2022/08/07 07:10:35;;;;;;;4.40;1.50;;;18.80;86.40;;;;;;6058434;23;20041;-81
2022/08/07 07:13:11;;;;;;;6.35;1.40;;;18.90;86.50;;;;;;6058791;23;20027;-79
2022/08/07 07:15:44;;;;;;;4.30;1.42;;;18.90;86.00;;;;;;6058551;23;20031;-78
2022/08/07 07:18:15;;;;;;;4.20;1.20;;;18.90;86.20;;;;;;6060121;23;20058;-78
2022/08/07 07:20:46;;;;;;;2.33;1.20;;;19.00;86.10;;;;;;6057905;23;20106;-78
2022/08/07 07:23:13;;;;;;;;;;;19.00;84.70;;;;;;6060914;23;20090;-79
2022/08/07 07:25:40;;;;;;;2.92;1.20;;;19.00;84.80;;;;;;6059250;23;19917;-76
2022/08/07 07:28:12;;;;;;;2.47;1.05;;;19.10;85.30;;;;;;6060090;23;20022;-76
2022/08/07 07:30:46;;;;;;;3.40;1.40;;;19.10;84.60;;;;;;6060077;23;20038;-77
2022/08/07 07:33:16;;;;;;;3.47;1.40;;;19.10;85.70;;;;;;6058618;23;20027;-77
2022/08/07 07:35:44;;;;;;;2.88;1.30;;;19.20;84.70;;;;;;6060082;23;20026;-78
2022/08/07 07:38:12;;;;;;;4.53;1.30;;;19.20;84.80;;;;;;6060135;23;20058;-77
2022/08/07 07:40:40;;;;;;;4.20;1.30;;;19.30;84.70;;;;;;6060340;23;20026;-78
2022/08/07 07:43:08;;;;;;;3.25;1.20;;;19.30;83.70;;;;;;6060696;23;20051;-77
2022/08/07 07:45:37;;;;;;;4.60;1.27;;;19.40;85.20;;;;;;6057529;23;20339;-77
2022/08/07 07:48:07;;;;;;;7.55;1.20;;;19.50;83.00;;;;;;6058864;23;20030;-77
2022/08/07 07:50:34;;;;;;;2.90;1.00;;;19.50;85.30;;;;;;6060512;23;20512;-77
2022/08/07 07:53:02;;;;;;;3.88;1.20;;;19.60;85.30;;;;;;6060500;23;20073;-77
2022/08/07 07:55:29;;;;;;;2.33;1.00;;;19.70;82.10;;;;;;6060466;23;20062;-76
2022/08/07 07:57:57;;;;;;;3.03;1.00;;;19.70;82.30;;;;;;6060506;23;20496;-77
2022/08/07 08:00:27;;;;;;;2.88;1.02;;;19.80;81.40;;;;;;6060214;23;20032;-81
2022/08/07 08:02:57;;;;;;;3.75;1.10;;;19.80;80.00;;;;;;6060527;23;20019;-78
2022/08/07 08:05:25;;;;;;;2.63;1.00;;;19.90;80.90;;;;;;6058833;23;20353;-80
2022/08/07 08:07:52;;;;;;;2.30;0.80;;;19.90;79.70;;;;;;6058888;23;20057;-79
2022/08/07 08:10:20;;;;;;;2.70;1.05;;;20.00;80.70;;;;;;6060064;23;20023;-79
2022/08/07 08:12:47;;;;;;;4.78;1.30;;;20.00;79.00;;;;;;6061034;23;20047;-79
2022/08/07 08:15:14;;;;;;;3.47;1.20;;;20.10;80.20;;;;;;6060503;23;20023;-79
2022/08/07 08:17:42;;;;;;;2.67;1.10;;;20.20;79.30;;;;;;6061318;23;20102;-79
2022/08/07 08:20:10;;;;;;;2.65;0.95;;;20.20;79.20;;;;;;6061051;23;20059;-79
2022/08/07 08:28:15;;;;;;;2.85;0.80;;;20.40;77.60;;;;;;6061145;23;20471;-79
2022/08/07 08:30:43;;;;;;;3.17;0.80;;;20.50;76.90;;;;;;6061024;23;20030;-79
2022/08/07 08:33:15;;;;;;;2.53;0.90;;;20.50;74.90;;;;;;6061042;23;20027;-78
2022/08/07 08:35:44;;;;;;;4.13;1.00;;;20.60;75.80;;;;;;6060347;23;20353;-79
2022/08/07 08:38:13;;;;;;;3.72;1.10;;;20.60;73.20;;;;;;6060735;23;20019;-79
2022/08/07 08:40:44;;;;;;;4.00;0.93;;;20.70;73.80;;;;;;6060833;23;20357;-79
2022/08/07 08:43:17;;;;;;;3.70;1.25;;;20.70;75.50;;;;;;6061245;23;20094;-79
2022/08/07 08:45:48;;;;;;;2.35;1.05;;;20.80;72.90;;;;;;6060657;23;20053;-79
2022/08/07 08:48:32;;;;;;;2.17;0.80;;;20.80;70.50;;;;;;6058847;23;20364;-79
2022/08/07 08:51:02;;;;;;;3.85;1.13;;;20.80;70.80;;;;;;6060705;23;20476;-79
2022/08/07 08:53:37;;;;;;;3.90;0.85;;;20.80;70.10;;;;;;6060793;23;20025;-79
2022/08/07 08:56:10;;;;;;;1.90;0.80;;;20.90;69.50;;;;;;6060479;23;20023;-79
2022/08/07 08:58:46;;;;;;;1.92;0.70;;;20.90;70.00;;;;;;6059226;23;20457;-79
2022/08/07 09:01:25;;;;;;;1.95;0.80;;;21.00;71.60;;;;;;6060839;23;20388;-79
2022/08/07 09:03:59;;;;;;;3.20;0.82;;;21.10;70.90;;;;;;6059023;23;20023;-79
2022/08/07 09:06:50;;;;;;;1.88;0.68;;;21.10;68.80;;;;;;6060986;23;20023;-79
2022/08/07 09:09:36;;;;;;;1.70;0.70;;;21.10;70.30;;;;;;6052776;23;20370;-79
2022/08/07 09:12:09;;;;;;;2.75;0.70;;;21.10;70.90;;;;;;6060836;23;20030;-79
2022/08/07 09:14:40;;;;;;;2.13;0.70;;;21.10;65.60;;;;;;6060272;23;20454;-79
2022/08/07 09:17:15;;;;;;;2.83;0.80;;;21.10;66.30;;;;;;6060491;23;20030;-79
2022/08/07 09:19:49;;;;;;;2.70;0.80;;;21.20;67.70;;;;;;6060337;23;20073;-79
2022/08/07 09:22:27;;;;;;;4.68;0.90;;;21.30;69.60;;;;;;6060905;23;20065;-79
2022/08/07 09:25:07;;;;;;;3.10;0.77;;;21.30;67.00;;;;;;6060612;23;20395;-79
2022/08/07 09:27:40;;;;;;;3.97;0.90;;;21.40;66.10;;;;;;6059581;23;20033;-79
2022/08/07 09:30:09;;;;;;;4.88;0.82;;;21.40;67.20;;;;;;6060328;23;20055;-79
2022/08/07 09:33:04;;;;;;;3.65;0.80;;;21.40;64.80;;;;;;6060780;23;20094;-79
2022/08/07 09:35:45;;;;;;;2.22;0.70;;;21.40;60.90;;;;;;6060452;23;20049;-79
2022/08/07 09:38:31;;;;;;;4.68;0.60;;;21.30;60.70;;;;;;6059144;23;20023;-79
2022/08/07 09:41:06;;;;;;;2.50;1.00;;;21.30;62.40;;;;;;6060423;23;20081;-79
2022/08/07 09:44:03;;;;;;;1.88;0.70;;;21.40;63.40;;;;;;6060903;23;20015;-79
2022/08/07 09:46:42;;;;;;;5.15;0.73;;;21.40;65.70;;;;;;6060583;23;20450;-79
2022/08/07 09:49:21;;;;;;;2.35;0.85;;;21.50;66.70;;;;;;6060315;23;20041;-79
2022/08/07 09:52:00;;;;;;;1.35;0.60;;;21.50;62.40;;;;;;6060857;23;20053;-79
2022/08/07 09:54:33;;;;;;;1.98;0.70;;;21.50;64.50;;;;;;6060316;23;20046;-79
2022/08/07 09:57:39;;;;;;;3.22;0.68;;;21.60;63.70;;;;;;6060143;23;20107;-79
2022/08/07 10:00:09;;;;;;;2.35;0.60;;;21.60;63.50;;;;;;6059714;23;20073;-80
2022/08/07 10:03:27;;;;;;;6.28;0.80;;;21.60;61.60;;;;;;6060664;23;20081;-79
2022/08/07 10:06:23;;;;;;;1.50;0.70;;;21.70;64.20;;;;;;6026583;23;20027;-79
2022/08/07 10:09:26;;;;;;;1.63;0.65;;;21.70;62.40;;;;;;6060342;23;20030;-79
2022/08/07 10:12:06;;;;;;;1.95;0.60;;;21.70;62.10;;;;;;6039043;23;20181;-79
2022/08/07 10:15:07;;;;;;;1.52;0.52;;;21.80;66.70;;;;;;6060430;23;20019;-79
2022/08/07 10:17:56;;;;;;;2.00;0.63;;;21.90;64.70;;;;;;6041607;23;20057;-79
2022/08/07 10:20:28;;;;;;;1.30;0.55;;;21.90;61.90;;;;;;6063530;23;20027;-79
2022/08/07 10:23:16;;;;;;;2.00;0.60;;;21.90;63.80;;;;;;6063846;23;20046;-80
2022/08/07 10:25:56;;;;;;;1.67;0.52;;;21.90;62.70;;;;;;6063394;23;20548;-79
2022/08/07 10:28:41;;;;;;;4.32;0.68;;;21.90;60.80;;;;;;6061853;23;20023;-80
2022/08/07 10:31:32;;;;;;;1.63;0.60;;;21.90;60.80;;;;;;6063704;23;20049;-79
2022/08/07 10:34:08;;;;;;;1.77;0.80;;;21.90;61.10;;;;;;6063669;23;20090;-79
2022/08/07 10:36:48;;;;;;;2.55;0.80;;;21.90;60.00;;;;;;6063231;23;20023;-79
2022/08/07 10:39:29;;;;;;;3.67;0.70;;;21.90;59.70;;;;;;6063089;23;20033;-79
2022/08/07 10:42:07;;;;;;;1.20;0.70;;;21.90;61.30;;;;;;6063705;23;20018;-79
2022/08/07 10:44:43;;;;;;;2.35;0.80;;;22.00;64.70;;;;;;6063186;23;20122;-79
2022/08/07 10:47:20;;;;;;;3.35;0.60;;;22.00;60.90;;;;;;6062805;23;20457;-80
2022/08/07 10:49:50;;;;;;;2.58;0.88;;;21.90;60.10;;;;;;6062776;23;20100;-80
2022/08/07 10:52:22;;;;;;;2.47;0.70;;;21.90;59.40;;;;;;6063453;23;20023;-79
2022/08/07 10:54:56;;;;;;;1.83;0.60;;;21.90;61.20;;;;;;6063156;23;20106;-79
2022/08/07 10:57:27;;;;;;;3.88;0.90;;;22.00;60.90;;;;;;6061707;23;20093;-80
2022/08/07 11:00:05;;;;;;;2.58;0.80;;;21.90;60.20;;;;;;6062921;23;20055;-80
2022/08/07 11:02:40;;;;;;;1.38;0.63;;;21.90;59.80;;;;;;6063628;23;20073;-79
2022/08/07 11:05:19;;;;;;;3.47;0.80;;;22.00;61.70;;;;;;6062983;23;20323;-79
2022/08/07 11:07:53;;;;;;;2.65;0.82;;;22.00;60.20;;;;;;6063115;23;20053;-80
2022/08/07 11:10:25;;;;;;;3.33;0.85;;;22.00;59.50;;;;;;6061490;23;20037;-79
2022/08/07 11:12:58;;;;;;;2.50;0.90;;;21.90;59.00;;;;;;6063288;23;20018;-80
2022/08/07 11:15:28;;;;;;;2.40;0.90;;;22.00;59.40;;;;;;6060952;23;20080;-79
2022/08/07 11:18:00;;;;;;;2.85;0.95;;;22.00;58.60;;;;;;6061448;23;20097;-80
2022/08/07 11:20:39;;;;;;;2.13;0.60;;;22.00;58.70;;;;;;6062812;23;20450;-79
2022/08/07 11:23:13;;;;;;;3.67;0.70;;;22.00;59.40;;;;;;6061719;23;20026;-79
2022/08/07 11:25:44;;;;;;;1.73;0.68;;;22.00;61.10;;;;;;6062474;23;20031;-79
2022/08/07 11:28:15;;;;;;;2.88;0.63;;;22.00;58.30;;;;;;6060995;23;20368;-80
2022/08/07 11:30:48;;;;;;;1.95;0.80;;;22.00;58.60;;;;;;6060954;23;20047;-79
2022/08/07 11:33:23;;;;;;;1.98;0.70;;;22.00;59.30;;;;;;6061255;23;20023;-79
2022/08/07 11:36:00;;;;;;;1.65;0.60;;;22.00;58.40;;;;;;6059487;23;20846;-79
2022/08/07 11:38:32;;;;;;;1.80;0.70;;;22.10;59.00;;;;;;6061333;23;20055;-79
2022/08/07 11:41:00;;;;;;;2.20;0.70;;;22.10;58.20;;;;;;6061082;23;20019;-79
2022/08/07 11:43:29;;;;;;;2.88;0.90;;;22.10;60.60;;;;;;6061436;23;20413;-79
2022/08/07 11:46:29;;;;;;;3.33;0.90;;;22.10;59.10;;;;;;6060455;23;20033;-79
2022/08/07 11:49:40;;;;;;;1.58;0.70;;;22.10;58.60;;;;;;6045038;23;20031;-79
2022/08/07 11:52:27;;;;;;;2.45;0.77;;;22.10;58.60;;;;;;6060629;23;20050;-79
2022/08/07 11:55:03;;;;;;;2.50;0.80;;;22.10;58.50;;;;;;6061178;23;20015;-79
2022/08/07 11:57:37;;;;;;;2.25;0.70;;;22.10;59.50;;;;;;6060808;23;20038;-79
2022/08/07 12:00:12;;;;;;;3.50;0.63;;;22.10;57.60;;;;;;6060602;23;20372;-80
2022/08/07 12:03:01;;;;;;;2.33;0.80;;;22.10;58.10;;;;;;6061864;23;20030;-79
2022/08/07 12:05:43;;;;;;;2.40;0.60;;;22.20;58.70;;;;;;6061154;23;20190;-80
2022/08/07 12:08:17;;;;;;;1.88;0.70;;;22.20;58.20;;;;;;6061114;23;20094;-79
2022/08/07 12:10:48;;;;;;;2.30;0.80;;;22.20;57.80;;;;;;6061169;23;20026;-79
2022/08/07 12:13:23;;;;;;;2.35;0.70;;;22.20;58.40;;;;;;6059427;23;20023;-79
2022/08/07 12:15:53;;;;;;;2.05;0.60;;;22.20;57.50;;;;;;6060572;23;20050;-79
2022/08/07 12:18:25;;;;;;;3.05;0.70;;;22.20;58.80;;;;;;6061006;23;20023;-79
2022/08/07 12:21:00;;;;;;;1.98;0.70;;;22.20;57.40;;;;;;6060672;23;20057;-80
2022/08/07 12:23:39;;;;;;;1.85;0.70;;;22.20;58.20;;;;;;6058985;23;20047;-77
2022/08/07 12:26:11;;;;;;;2.72;0.60;;;22.20;57.60;;;;;;6058771;23;20030;-76
2022/08/07 12:28:43;;;;;;;2.88;0.80;;;22.20;56.70;;;;;;6060015;23;20133;-75
2022/08/07 12:31:19;;;;;;;1.88;0.63;;;22.20;56.90;;;;;;6060353;23;20023;-77
2022/08/07 12:33:47;;;;;;;2.10;0.80;;;22.20;57.60;;;;;;6061113;23;20054;-76
2022/08/07 12:36:16;;;;;;;3.20;0.70;;;22.20;57.40;;;;;;6059295;23;20101;-75
2022/08/07 12:38:44;;;;;;;2.70;0.80;;;22.20;58.20;;;;;;6057835;23;20088;-76
2022/08/07 12:41:12;;;;;;;2.17;0.70;;;22.20;57.70;;;;;;6058330;23;20034;-76
2022/08/07 12:43:40;;;;;;;2.10;0.70;;;22.20;58.30;;;;;;6058837;23;20015;-76
2022/08/07 12:46:15;;;;;;;8.32;1.05;;;22.20;56.70;;;;;;6058683;23;20097;-75
2022/08/07 12:48:50;;;;;;;2.45;0.93;;;22.30;58.30;;;;;;6057907;23;20027;-77
2022/08/07 12:51:20;;;;;;;4.95;0.88;;;22.30;58.50;;;;;;6058725;23;20073;-78
2022/08/07 12:53:52;;;;;;;3.88;0.90;;;22.30;56.80;;;;;;6058938;23;20019;-77
2022/08/07 12:56:25;;;;;;;1.92;0.70;;;22.30;57.20;;;;;;6060333;23;20019;-77
2022/08/07 12:58:53;;;;;;;1.90;0.70;;;22.30;55.50;;;;;;6059866;23;20081;-77
2022/08/07 13:01:37;;;;;;;1.88;0.60;;;22.30;56.60;;;;;;6060203;23;20023;-77
2022/08/07 13:04:14;;;;;;;2.35;0.65;;;22.30;56.80;;;;;;6060393;23;20089;-78
2022/08/07 13:07:06;;;;;;;3.45;0.60;;;22.30;58.10;;;;;;6060275;23;20118;-80
2022/08/07 13:09:46;;;;;;;1.70;0.70;;;22.30;57.50;;;;;;6059806;23;20029;-80
2022/08/07 13:12:22;;;;;;;3.83;0.90;;;22.30;56.00;;;;;;6060334;23;20030;-80
2022/08/07 13:14:59;;;;;;;1.70;0.70;;;22.20;56.40;;;;;;6060653;23;20098;-80
2022/08/07 13:17:34;;;;;;;3.03;0.80;;;22.30;57.60;;;;;;6060497;23;20457;-81
2022/08/07 13:20:06;;;;;;;2.40;1.00;;;22.30;57.70;;;;;;6058775;23;20038;-81